sensor_id;sensor_type;location;lat;lon;timestamp;pressure;altitude;pressure_sealevel;temperature;humidity
26487;BME280;14425;56.136;40.360;2022-12-18T00:01:32;99228.06;;;-4.45;100.00
26487;BME280;14425;56.136;40.360;2022-12-18T00:03:58;99226.63;;;-4.52;100.00
26487;BME280;14425;56.136;40.360;2022-12-18T00:06:24;99212.22;;;-4.44;100.00
26487;BME280;14425;56.136;40.360;2022-12-18T00:08:50;99223.34;;;-4.61;100.00
26487;BME280;14425;56.136;40.360;2022-12-18T00:11:20;99220.19;;;-4.39;100.00
26487;BME280;14425;56.136;40.360;2022-12-18T00:13:46;99206.66;;;-4.21;100.00
26487;BME280;14425;56.136;40.360;2022-12-18T00:16:13;99213.47;;;-4.20;100.00
26487;BME280;14425;56.136;40.360;2022-12-18T00:18:38;99215.25;;;-4.09;100.00
26487;BME280;14425;56.136;40.360;2022-12-18T00:21:05;99235.53;;;-4.07;100.00
26487;BME280;14425;56.136;40.360;2022-12-18T00:23:31;99233.00;;;-3.67;100.00
26487;BME280;14425;56.136;40.360;2022-12-18T00:26:04;99240.63;;;-3.47;100.00
26487;BME280;14425;56.136;40.360;2022-12-18T00:28:30;99244.75;;;-3.47;100.00
26487;BME280;14425;56.136;40.360;2022-12-18T00:31:06;99238.63;;;-3.10;100.00
26487;BME280;14425;56.136;40.360;2022-12-18T00:33:32;99226.00;;;-3.10;100.00
26487;BME280;14425;56.136;40.360;2022-12-18T00:36:04;99211.63;;;-3.31;100.00
26487;BME280;14425;56.136;40.360;2022-12-18T00:38:30;99196.25;;;-3.35;100.00
26487;BME280;14425;56.136;40.360;2022-12-18T00:40:55;99175.28;;;-3.75;100.00
26487;BME280;14425;56.136;40.360;2022-12-18T00:43:20;99163.47;;;-3.55;100.00
26487;BME280;14425;56.136;40.360;2022-12-18T00:45:46;99150.75;;;-3.57;100.00
26487;BME280;14425;56.136;40.360;2022-12-18T00:48:11;99140.53;;;-3.68;100.00
26487;BME280;14425;56.136;40.360;2022-12-18T00:50:36;99124.09;;;-3.94;100.00
26487;BME280;14425;56.136;40.360;2022-12-18T00:53:02;99110.25;;;-3.99;100.00
26487;BME280;14425;56.136;40.360;2022-12-18T00:55:27;99095.91;;;-3.90;100.00
26487;BME280;14425;56.136;40.360;2022-12-18T00:57:52;99098.91;;;-4.15;100.00
26487;BME280;14425;56.136;40.360;2022-12-18T01:00:18;99087.78;;;-4.27;100.00
26487;BME280;14425;56.136;40.360;2022-12-18T01:02:43;99066.63;;;-4.39;100.00
26487;BME280;14425;56.136;40.360;2022-12-18T01:05:09;99050.94;;;-4.66;100.00
26487;BME280;14425;56.136;40.360;2022-12-18T01:07:35;99055.44;;;-4.72;100.00
26487;BME280;14425;56.136;40.360;2022-12-18T01:10:00;99044.91;;;-4.97;100.00
26487;BME280;14425;56.136;40.360;2022-12-18T01:12:25;99029.03;;;-4.67;100.00
26487;BME280;14425;56.136;40.360;2022-12-18T01:14:51;99041.19;;;-4.42;100.00
26487;BME280;14425;56.136;40.360;2022-12-18T01:17:16;99033.84;;;-4.60;100.00
26487;BME280;14425;56.136;40.360;2022-12-18T01:19:41;99041.56;;;-4.38;100.00
26487;BME280;14425;56.136;40.360;2022-12-18T01:22:07;99031.13;;;-4.42;100.00
26487;BME280;14425;56.136;40.360;2022-12-18T01:24:32;99042.56;;;-4.46;100.00
26487;BME280;14425;56.136;40.360;2022-12-18T01:26:57;99047.47;;;-4.48;100.00
26487;BME280;14425;56.136;40.360;2022-12-18T01:29:23;99035.22;;;-4.64;100.00
26487;BME280;14425;56.136;40.360;2022-12-18T01:31:48;99032.00;;;-4.82;100.00
26487;BME280;14425;56.136;40.360;2022-12-18T01:34:13;99043.91;;;-4.99;100.00
26487;BME280;14425;56.136;40.360;2022-12-18T01:36:39;99028.28;;;-4.76;100.00
26487;BME280;14425;56.136;40.360;2022-12-18T01:39:05;99037.53;;;-4.86;100.00
26487;BME280;14425;56.136;40.360;2022-12-18T01:41:31;99042.34;;;-4.68;100.00
26487;BME280;14425;56.136;40.360;2022-12-18T01:47:01;99029.63;;;-4.80;100.00
26487;BME280;14425;56.136;40.360;2022-12-18T01:49:26;99015.28;;;-4.91;100.00
26487;BME280;14425;56.136;40.360;2022-12-18T01:51:51;99009.56;;;-4.99;100.00
26487;BME280;14425;56.136;40.360;2022-12-18T01:54:17;99000.22;;;-4.81;100.00
26487;BME280;14425;56.136;40.360;2022-12-18T01:56:42;98984.25;;;-4.71;100.00
26487;BME280;14425;56.136;40.360;2022-12-18T01:59:08;98983.63;;;-5.08;100.00
26487;BME280;14425;56.136;40.360;2022-12-18T02:01:35;98973.88;;;-4.95;100.00
26487;BME280;14425;56.136;40.360;2022-12-18T02:04:21;98968.28;;;-5.11;100.00
26487;BME280;14425;56.136;40.360;2022-12-18T02:06:49;98952.00;;;-4.96;100.00
26487;BME280;14425;56.136;40.360;2022-12-18T02:09:20;98932.28;;;-4.91;100.00
26487;BME280;14425;56.136;40.360;2022-12-18T02:27:23;98913.75;;;-5.02;100.00
26487;BME280;14425;56.136;40.360;2022-12-18T02:29:52;98898.47;;;-4.85;100.00
26487;BME280;14425;56.136;40.360;2022-12-18T02:32:24;98890.78;;;-4.76;100.00
26487;BME280;14425;56.136;40.360;2022-12-18T02:34:51;98897.19;;;-4.79;100.00
26487;BME280;14425;56.136;40.360;2022-12-18T02:37:19;98894.16;;;-4.86;100.00
26487;BME280;14425;56.136;40.360;2022-12-18T02:39:46;98897.94;;;-4.70;100.00
26487;BME280;14425;56.136;40.360;2022-12-18T02:42:12;98879.94;;;-4.95;100.00
26487;BME280;14425;56.136;40.360;2022-12-18T02:44:44;98887.63;;;-4.94;100.00
26487;BME280;14425;56.136;40.360;2022-12-18T02:47:13;98870.28;;;-4.70;100.00
26487;BME280;14425;56.136;40.360;2022-12-18T02:49:42;98865.50;;;-4.88;100.00
26487;BME280;14425;56.136;40.360;2022-12-18T02:57:24;98854.56;;;-4.57;100.00
26487;BME280;14425;56.136;40.360;2022-12-18T02:59:56;98849.28;;;-4.81;100.00
26487;BME280;14425;56.136;40.360;2022-12-18T03:02:29;98863.47;;;-4.92;100.00
26487;BME280;14425;56.136;40.360;2022-12-18T03:05:04;98854.94;;;-4.84;100.00
26487;BME280;14425;56.136;40.360;2022-12-18T03:07:34;98845.00;;;-4.72;100.00
26487;BME280;14425;56.136;40.360;2022-12-18T03:10:00;98841.88;;;-4.79;100.00
26487;BME280;14425;56.136;40.360;2022-12-18T03:17:23;98839.78;;;-4.12;100.00
26487;BME280;14425;56.136;40.360;2022-12-18T03:19:50;98843.38;;;-4.71;100.00
26487;BME280;14425;56.136;40.360;2022-12-18T03:22:16;98839.34;;;-4.79;100.00
26487;BME280;14425;56.136;40.360;2022-12-18T03:24:42;98827.28;;;-4.63;100.00
26487;BME280;14425;56.136;40.360;2022-12-18T03:27:10;98815.19;;;-4.98;100.00
26487;BME280;14425;56.136;40.360;2022-12-18T03:29:43;98823.47;;;-4.89;100.00
26487;BME280;14425;56.136;40.360;2022-12-18T03:32:15;98822.63;;;-4.99;100.00
26487;BME280;14425;56.136;40.360;2022-12-18T03:34:41;98830.78;;;-5.02;100.00
26487;BME280;14425;56.136;40.360;2022-12-18T03:37:07;98807.75;;;-4.55;100.00
26487;BME280;14425;56.136;40.360;2022-12-18T03:39:33;98819.19;;;-4.90;100.00
26487;BME280;14425;56.136;40.360;2022-12-18T03:42:10;98819.69;;;-4.73;100.00
26487;BME280;14425;56.136;40.360;2022-12-18T03:44:47;98823.22;;;-4.82;100.00
26487;BME280;14425;56.136;40.360;2022-12-18T03:47:16;98819.47;;;-5.07;100.00
26487;BME280;14425;56.136;40.360;2022-12-18T03:49:50;98821.44;;;-5.13;100.00
26487;BME280;14425;56.136;40.360;2022-12-18T03:52:24;98822.75;;;-4.88;100.00
26487;BME280;14425;56.136;40.360;2022-12-18T03:54:51;98798.84;;;-4.83;100.00
26487;BME280;14425;56.136;40.360;2022-12-18T03:57:19;98799.47;;;-4.85;100.00
26487;BME280;14425;56.136;40.360;2022-12-18T03:59:46;98798.84;;;-4.72;100.00
26487;BME280;14425;56.136;40.360;2022-12-18T04:02:12;98796.44;;;-5.02;100.00
26487;BME280;14425;56.136;40.360;2022-12-18T04:04:40;98788.53;;;-4.96;100.00
26487;BME280;14425;56.136;40.360;2022-12-18T04:07:07;98788.78;;;-4.93;100.00
26487;BME280;14425;56.136;40.360;2022-12-18T04:09:32;98783.34;;;-5.18;100.00
26487;BME280;14425;56.136;40.360;2022-12-18T04:11:59;98786.72;;;-5.48;100.00
26487;BME280;14425;56.136;40.360;2022-12-18T04:14:24;98788.22;;;-5.50;100.00
26487;BME280;14425;56.136;40.360;2022-12-18T04:16:49;98794.19;;;-5.29;100.00
26487;BME280;14425;56.136;40.360;2022-12-18T04:19:15;98789.88;;;-5.41;100.00
26487;BME280;14425;56.136;40.360;2022-12-18T04:21:40;98790.78;;;-4.89;100.00
26487;BME280;14425;56.136;40.360;2022-12-18T04:24:05;98783.25;;;-4.89;100.00
26487;BME280;14425;56.136;40.360;2022-12-18T04:26:31;98780.47;;;-4.92;100.00
26487;BME280;14425;56.136;40.360;2022-12-18T04:28:58;98774.72;;;-5.01;100.00
26487;BME280;14425;56.136;40.360;2022-12-18T04:31:23;98773.31;;;-5.08;100.00
26487;BME280;14425;56.136;40.360;2022-12-18T04:33:49;98785.25;;;-5.36;100.00
26487;BME280;14425;56.136;40.360;2022-12-18T04:36:14;98781.25;;;-4.93;100.00
26487;BME280;14425;56.136;40.360;2022-12-18T04:38:40;98785.50;;;-5.02;100.00
26487;BME280;14425;56.136;40.360;2022-12-18T04:41:06;98782.47;;;-5.08;100.00
26487;BME280;14425;56.136;40.360;2022-12-18T04:43:31;98785.88;;;-5.28;100.00
26487;BME280;14425;56.136;40.360;2022-12-18T04:46:01;98779.19;;;-5.38;100.00
26487;BME280;14425;56.136;40.360;2022-12-18T04:48:27;98760.84;;;-5.27;100.00
26487;BME280;14425;56.136;40.360;2022-12-18T04:50:52;98766.88;;;-5.35;100.00
26487;BME280;14425;56.136;40.360;2022-12-18T04:53:17;98771.91;;;-5.25;100.00
26487;BME280;14425;56.136;40.360;2022-12-18T04:55:42;98781.22;;;-5.34;100.00
26487;BME280;14425;56.136;40.360;2022-12-18T04:58:08;98791.41;;;-5.12;100.00
26487;BME280;14425;56.136;40.360;2022-12-18T05:00:33;98794.03;;;-5.31;100.00
26487;BME280;14425;56.136;40.360;2022-12-18T05:03:00;98791.28;;;-5.24;100.00
26487;BME280;14425;56.136;40.360;2022-12-18T05:05:25;98788.53;;;-4.96;100.00
26487;BME280;14425;56.136;40.360;2022-12-18T05:07:50;98783.13;;;-5.21;100.00
26487;BME280;14425;56.136;40.360;2022-12-18T05:10:16;98782.88;;;-5.14;100.00
26487;BME280;14425;56.136;40.360;2022-12-18T05:12:41;98788.03;;;-5.23;100.00
26487;BME280;14425;56.136;40.360;2022-12-18T05:15:29;98803.13;;;-5.02;100.00
26487;BME280;14425;56.136;40.360;2022-12-18T05:17:54;98812.16;;;-5.14;100.00
26487;BME280;14425;56.136;40.360;2022-12-18T05:20:20;98790.66;;;-5.01;100.00
26487;BME280;14425;56.136;40.360;2022-12-18T05:22:45;98780.63;;;-5.21;100.00
26487;BME280;14425;56.136;40.360;2022-12-18T05:25:10;98789.88;;;-5.30;100.00
26487;BME280;14425;56.136;40.360;2022-12-18T05:27:36;98780.00;;;-4.98;100.00
26487;BME280;14425;56.136;40.360;2022-12-18T05:30:01;98789.03;;;-4.69;100.00
26487;BME280;14425;56.136;40.360;2022-12-18T05:32:26;98781.59;;;-4.57;100.00
26487;BME280;14425;56.136;40.360;2022-12-18T05:34:51;98785.25;;;-4.95;100.00
26487;BME280;14425;56.136;40.360;2022-12-18T05:37:17;98797.03;;;-5.25;100.00
26487;BME280;14425;56.136;40.360;2022-12-18T05:39:43;98801.84;;;-5.28;100.00
26487;BME280;14425;56.136;40.360;2022-12-18T05:42:08;98812.25;;;-5.23;100.00
26487;BME280;14425;56.136;40.360;2022-12-18T05:44:33;98811.63;;;-5.31;100.00
26487;BME280;14425;56.136;40.360;2022-12-18T05:46:59;98817.41;;;-5.22;100.00
26487;BME280;14425;56.136;40.360;2022-12-18T05:49:24;98811.13;;;-5.27;100.00
26487;BME280;14425;56.136;40.360;2022-12-18T05:51:49;98803.38;;;-5.20;100.00
26487;BME280;14425;56.136;40.360;2022-12-18T05:54:14;98813.13;;;-5.33;100.00
26487;BME280;14425;56.136;40.360;2022-12-18T05:56:40;98822.31;;;-5.33;100.00
26487;BME280;14425;56.136;40.360;2022-12-18T05:59:05;98831.25;;;-5.27;100.00
26487;BME280;14425;56.136;40.360;2022-12-18T06:01:30;98828.50;;;-5.20;100.00
26487;BME280;14425;56.136;40.360;2022-12-18T06:03:56;98819.94;;;-5.11;100.00
26487;BME280;14425;56.136;40.360;2022-12-18T06:06:22;98829.13;;;-5.12;100.00
26487;BME280;14425;56.136;40.360;2022-12-18T06:08:48;98841.03;;;-5.30;100.00
26487;BME280;14425;56.136;40.360;2022-12-18T06:11:16;98837.25;;;-5.25;100.00
26487;BME280;14425;56.136;40.360;2022-12-18T06:13:41;98836.53;;;-5.13;100.00
26487;BME280;14425;56.136;40.360;2022-12-18T06:16:07;98844.56;;;-5.28;100.00
26487;BME280;14425;56.136;40.360;2022-12-18T06:18:33;98828.72;;;-5.27;100.00
26487;BME280;14425;56.136;40.360;2022-12-18T06:20:58;98835.50;;;-5.36;100.00
26487;BME280;14425;56.136;40.360;2022-12-18T06:23:24;98835.50;;;-5.36;100.00
26487;BME280;14425;56.136;40.360;2022-12-18T06:25:50;98843.66;;;-5.28;100.00
26487;BME280;14425;56.136;40.360;2022-12-18T06:28:15;98840.44;;;-5.17;100.00
26487;BME280;14425;56.136;40.360;2022-12-18T06:30:43;98852.34;;;-5.35;100.00
26487;BME280;14425;56.136;40.360;2022-12-18T06:33:08;98860.13;;;-5.42;100.00
26487;BME280;14425;56.136;40.360;2022-12-18T06:35:34;98857.44;;;-5.14;100.00
26487;BME280;14425;56.136;40.360;2022-12-18T06:38:00;98870.22;;;-5.11;100.00
26487;BME280;14425;56.136;40.360;2022-12-18T06:40:29;98864.47;;;-4.90;100.00
26487;BME280;14425;56.136;40.360;2022-12-18T06:42:54;98872.78;;;-5.01;100.00
26487;BME280;14425;56.136;40.360;2022-12-18T06:45:22;98870.63;;;-5.07;100.00
26487;BME280;14425;56.136;40.360;2022-12-18T06:47:48;98860.53;;;-5.27;100.00
26487;BME280;14425;56.136;40.360;2022-12-18T06:50:16;98874.94;;;-5.45;100.00
26487;BME280;14425;56.136;40.360;2022-12-18T06:52:41;98861.94;;;-5.21;100.00
26487;BME280;14425;56.136;40.360;2022-12-18T06:55:09;98880.94;;;-5.04;100.00
26487;BME280;14425;56.136;40.360;2022-12-18T06:57:35;98876.84;;;-5.32;100.00
26487;BME280;14425;56.136;40.360;2022-12-18T07:00:00;98880.25;;;-5.32;100.00
26487;BME280;14425;56.136;40.360;2022-12-18T07:02:28;98876.22;;;-5.30;100.00
26487;BME280;14425;56.136;40.360;2022-12-18T07:04:53;98868.53;;;-5.31;100.00
26487;BME280;14425;56.136;40.360;2022-12-18T07:07:19;98861.53;;;-5.15;100.00
26487;BME280;14425;56.136;40.360;2022-12-18T07:09:47;98862.78;;;-5.20;100.00
26487;BME280;14425;56.136;40.360;2022-12-18T07:12:14;98856.88;;;-5.31;100.00
26487;BME280;14425;56.136;40.360;2022-12-18T07:14:39;98851.47;;;-5.35;100.00
26487;BME280;14425;56.136;40.360;2022-12-18T07:17:04;98856.44;;;-4.96;100.00
26487;BME280;14425;56.136;40.360;2022-12-18T07:19:30;98866.09;;;-5.21;100.00
26487;BME280;14425;56.136;40.360;2022-12-18T07:21:56;98866.50;;;-4.96;100.00
26487;BME280;14425;56.136;40.360;2022-12-18T07:24:24;98861.66;;;-5.24;100.00
26487;BME280;14425;56.136;40.360;2022-12-18T07:26:49;98884.25;;;-5.44;100.00
26487;BME280;14425;56.136;40.360;2022-12-18T07:29:15;98879.69;;;-5.48;100.00
26487;BME280;14425;56.136;40.360;2022-12-18T07:31:40;98886.59;;;-5.06;100.00
26487;BME280;14425;56.136;40.360;2022-12-18T07:34:09;98892.13;;;-5.00;100.00
26487;BME280;14425;56.136;40.360;2022-12-18T07:36:35;98898.53;;;-5.14;100.00
26487;BME280;14425;56.136;40.360;2022-12-18T07:39:00;98894.88;;;-5.17;100.00
26487;BME280;14425;56.136;40.360;2022-12-18T07:41:25;98884.59;;;-4.90;100.00
26487;BME280;14425;56.136;40.360;2022-12-18T07:43:51;98891.25;;;-5.11;100.00
26487;BME280;14425;56.136;40.360;2022-12-18T07:46:16;98899.09;;;-5.27;100.00
26487;BME280;14425;56.136;40.360;2022-12-18T07:51:30;98908.25;;;-5.38;100.00
26487;BME280;14425;56.136;40.360;2022-12-18T07:53:56;98912.91;;;-5.32;100.00
26487;BME280;14425;56.136;40.360;2022-12-18T07:56:22;98926.97;;;-5.44;100.00
26487;BME280;14425;56.136;40.360;2022-12-18T07:58:47;98935.38;;;-5.44;100.00
26487;BME280;14425;56.136;40.360;2022-12-18T08:01:12;98943.72;;;-5.34;100.00
26487;BME280;14425;56.136;40.360;2022-12-18T08:03:38;98956.47;;;-5.12;100.00
26487;BME280;14425;56.136;40.360;2022-12-18T08:06:05;98952.75;;;-4.87;100.00
26487;BME280;14425;56.136;40.360;2022-12-18T08:08:31;98961.91;;;-5.08;100.00
26487;BME280;14425;56.136;40.360;2022-12-18T08:11:00;98964.88;;;-4.83;100.00
26487;BME280;14425;56.136;40.360;2022-12-18T08:13:28;98962.41;;;-4.21;100.00
26487;BME280;14425;56.136;40.360;2022-12-18T08:15:58;98976.75;;;-4.51;100.00
26487;BME280;14425;56.136;40.360;2022-12-18T08:18:24;98973.56;;;-4.69;100.00
26487;BME280;14425;56.136;40.360;2022-12-18T08:20:49;98976.94;;;-4.68;100.00
26487;BME280;14425;56.136;40.360;2022-12-18T08:23:15;98984.47;;;-4.78;100.00
26487;BME280;14425;56.136;40.360;2022-12-18T08:25:40;98992.97;;;-4.97;100.00
26487;BME280;14425;56.136;40.360;2022-12-18T08:28:06;98986.97;;;-4.89;100.00
26487;BME280;14425;56.136;40.360;2022-12-18T08:30:32;98998.09;;;-4.66;100.00
26487;BME280;14425;56.136;40.360;2022-12-18T08:32:57;98990.31;;;-4.59;100.00
26487;BME280;14425;56.136;40.360;2022-12-18T08:35:23;98990.31;;;-4.49;100.00
26487;BME280;14425;56.136;40.360;2022-12-18T08:37:48;98993.41;;;-4.72;100.00
26487;BME280;14425;56.136;40.360;2022-12-18T08:40:14;98990.75;;;-4.84;100.00
26487;BME280;14425;56.136;40.360;2022-12-18T08:42:39;99004.56;;;-4.29;100.00
26487;BME280;14425;56.136;40.360;2022-12-18T08:45:27;99006.59;;;-4.24;100.00
26487;BME280;14425;56.136;40.360;2022-12-18T08:47:52;99005.47;;;-4.18;100.00
26487;BME280;14425;56.136;40.360;2022-12-18T08:50:18;99011.03;;;-4.12;100.00
26487;BME280;14425;56.136;40.360;2022-12-18T08:52:43;99006.72;;;-4.13;98.92
26487;BME280;14425;56.136;40.360;2022-12-18T08:55:08;99003.69;;;-4.29;99.11
26487;BME280;14425;56.136;40.360;2022-12-18T08:57:34;99011.97;;;-4.51;100.00
26487;BME280;14425;56.136;40.360;2022-12-18T08:59:59;99019.91;;;-4.46;100.00
26487;BME280;14425;56.136;40.360;2022-12-18T09:02:25;99024.34;;;-4.23;99.23
26487;BME280;14425;56.136;40.360;2022-12-18T09:04:50;99021.50;;;-4.57;100.00
26487;BME280;14425;56.136;40.360;2022-12-18T09:07:18;99020.44;;;-4.40;100.00
26487;BME280;14425;56.136;40.360;2022-12-18T09:09:44;99023.03;;;-4.49;99.60
26487;BME280;14425;56.136;40.360;2022-12-18T09:12:09;99034.16;;;-4.36;100.00
26487;BME280;14425;56.136;40.360;2022-12-18T09:14:35;99038.78;;;-4.41;100.00
26487;BME280;14425;56.136;40.360;2022-12-18T09:17:00;99041.97;;;-4.13;100.00
26487;BME280;14425;56.136;40.360;2022-12-18T09:19:28;99051.19;;;-4.03;97.55
26487;BME280;14425;56.136;40.360;2022-12-18T09:21:54;99055.44;;;-4.02;97.44
26487;BME280;14425;56.136;40.360;2022-12-18T09:24:22;99057.47;;;-4.18;99.44
26487;BME280;14425;56.136;40.360;2022-12-18T09:26:47;99062.38;;;-3.89;96.93
26487;BME280;14425;56.136;40.360;2022-12-18T09:29:12;99063.25;;;-4.30;96.97
26487;BME280;14425;56.136;40.360;2022-12-18T09:31:38;99064.78;;;-3.91;99.14
26487;BME280;14425;56.136;40.360;2022-12-18T09:34:03;99063.78;;;-3.82;93.29
26487;BME280;14425;56.136;40.360;2022-12-18T09:36:28;99075.72;;;-4.11;95.57
26487;BME280;14425;56.136;40.360;2022-12-18T09:38:54;99081.53;;;-3.91;94.96
26487;BME280;14425;56.136;40.360;2022-12-18T09:43:51;99089.25;;;-4.50;95.17
26487;BME280;14425;56.136;40.360;2022-12-18T09:46:21;99098.50;;;-4.69;98.09
26487;BME280;14425;56.136;40.360;2022-12-18T09:48:50;99110.28;;;-4.68;97.82
26487;BME280;14425;56.136;40.360;2022-12-18T09:51:32;99110.72;;;-4.93;99.30
26487;BME280;14425;56.136;40.360;2022-12-18T09:54:01;99104.44;;;-4.88;100.00
26487;BME280;14425;56.136;40.360;2022-12-18T09:56:29;99099.88;;;-4.73;98.39
26487;BME280;14425;56.136;40.360;2022-12-18T09:59:00;99119.28;;;-4.91;100.00
26487;BME280;14425;56.136;40.360;2022-12-18T10:01:26;99122.66;;;-4.90;99.09
26487;BME280;14425;56.136;40.360;2022-12-18T10:03:52;99115.03;;;-4.82;99.70
26487;BME280;14425;56.136;40.360;2022-12-18T10:14:07;99127.34;;;-4.55;97.56
26487;BME280;14425;56.136;40.360;2022-12-18T10:16:57;99135.50;;;-4.87;96.86
26487;BME280;14425;56.136;40.360;2022-12-18T10:19:42;99151.00;;;-4.83;98.08
26487;BME280;14425;56.136;40.360;2022-12-18T10:22:36;99143.13;;;-4.96;99.14
26487;BME280;14425;56.136;40.360;2022-12-18T10:25:17;99144.28;;;-4.92;99.72
26487;BME280;14425;56.136;40.360;2022-12-18T10:27:44;99153.06;;;-4.68;99.62
26487;BME280;14425;56.136;40.360;2022-12-18T10:30:16;99156.63;;;-4.66;97.14
26487;BME280;14425;56.136;40.360;2022-12-18T10:32:42;99154.19;;;-4.46;97.53
26487;BME280;14425;56.136;40.360;2022-12-18T10:35:11;99146.75;;;-4.54;96.61
26487;BME280;14425;56.136;40.360;2022-12-18T10:37:42;99157.31;;;-4.77;98.67
26487;BME280;14425;56.136;40.360;2022-12-18T10:40:23;99155.47;;;-4.40;99.41
26487;BME280;14425;56.136;40.360;2022-12-18T10:45:29;99169.16;;;-4.18;100.00
26487;BME280;14425;56.136;40.360;2022-12-18T10:47:54;99171.25;;;-3.83;100.00
26487;BME280;14425;56.136;40.360;2022-12-18T10:52:58;99173.38;;;-4.86;100.00
26487;BME280;14425;56.136;40.360;2022-12-18T10:55:25;99180.78;;;-5.25;100.00
26487;BME280;14425;56.136;40.360;2022-12-18T10:57:52;99175.34;;;-5.30;100.00
26487;BME280;14425;56.136;40.360;2022-12-18T11:00:20;99184.38;;;-5.32;100.00
26487;BME280;14425;56.136;40.360;2022-12-18T11:02:46;99200.75;;;-5.27;100.00
26487;BME280;14425;56.136;40.360;2022-12-18T11:05:31;99196.84;;;-5.14;100.00
26487;BME280;14425;56.136;40.360;2022-12-18T11:07:58;99185.25;;;-4.93;100.00
26487;BME280;14425;56.136;40.360;2022-12-18T11:10:36;99190.56;;;-4.90;100.00
26487;BME280;14425;56.136;40.360;2022-12-18T11:15:54;99199.00;;;-5.09;100.00
26487;BME280;14425;56.136;40.360;2022-12-18T11:18:33;99191.34;;;-5.38;100.00
26487;BME280;14425;56.136;40.360;2022-12-18T11:20:59;99193.63;;;-5.50;100.00
26487;BME280;14425;56.136;40.360;2022-12-18T11:23:25;99204.47;;;-5.32;100.00
26487;BME280;14425;56.136;40.360;2022-12-18T11:25:53;99204.59;;;-5.49;100.00
26487;BME280;14425;56.136;40.360;2022-12-18T11:28:39;99204.63;;;-5.58;100.00
26487;BME280;14425;56.136;40.360;2022-12-18T11:33:38;99213.16;;;-5.47;100.00
26487;BME280;14425;56.136;40.360;2022-12-18T11:36:08;99215.84;;;-5.54;100.00
26487;BME280;14425;56.136;40.360;2022-12-18T11:38:37;99229.97;;;-5.46;100.00
26487;BME280;14425;56.136;40.360;2022-12-18T11:41:04;99236.72;;;-5.36;100.00
26487;BME280;14425;56.136;40.360;2022-12-18T11:43:31;99235.69;;;-5.58;100.00
26487;BME280;14425;56.136;40.360;2022-12-18T11:46:00;99232.34;;;-5.20;100.00
26487;BME280;14425;56.136;40.360;2022-12-18T11:48:29;99232.63;;;-5.36;100.00
26487;BME280;14425;56.136;40.360;2022-12-18T11:50:57;99237.56;;;-4.99;100.00
26487;BME280;14425;56.136;40.360;2022-12-18T11:53:24;99244.69;;;-4.85;100.00
26487;BME280;14425;56.136;40.360;2022-12-18T12:06:52;99269.06;;;-5.59;100.00
26487;BME280;14425;56.136;40.360;2022-12-18T12:09:27;99273.28;;;-5.40;100.00
26487;BME280;14425;56.136;40.360;2022-12-18T12:14:38;99274.59;;;-5.71;100.00
26487;BME280;14425;56.136;40.360;2022-12-18T12:17:55;99281.06;;;-5.65;100.00
26487;BME280;14425;56.136;40.360;2022-12-18T12:22:47;99290.41;;;-5.72;100.00
26487;BME280;14425;56.136;40.360;2022-12-18T12:27:50;99321.88;;;-5.03;100.00
26487;BME280;14425;56.136;40.360;2022-12-18T12:30:18;99324.16;;;-4.68;100.00
26487;BME280;14425;56.136;40.360;2022-12-18T12:35:25;99330.28;;;-5.67;100.00
26487;BME280;14425;56.136;40.360;2022-12-18T12:40:42;99344.03;;;-5.72;100.00
26487;BME280;14425;56.136;40.360;2022-12-18T12:43:15;99352.94;;;-5.30;100.00
26487;BME280;14425;56.136;40.360;2022-12-18T12:45:53;99351.75;;;-4.70;100.00
26487;BME280;14425;56.136;40.360;2022-12-18T12:50:58;99369.28;;;-4.89;100.00
26487;BME280;14425;56.136;40.360;2022-12-18T12:53:30;99378.84;;;-4.76;100.00
26487;BME280;14425;56.136;40.360;2022-12-18T12:55:59;99391.50;;;-5.30;100.00
26487;BME280;14425;56.136;40.360;2022-12-18T12:58:31;99394.47;;;-4.61;100.00
26487;BME280;14425;56.136;40.360;2022-12-18T13:01:17;99394.19;;;-4.64;100.00
26487;BME280;14425;56.136;40.360;2022-12-18T13:08:59;99418.06;;;-5.51;100.00
26487;BME280;14425;56.136;40.360;2022-12-18T13:11:35;99422.97;;;-5.87;100.00
26487;BME280;14425;56.136;40.360;2022-12-18T13:14:20;99404.38;;;-5.27;100.00
26487;BME280;14425;56.136;40.360;2022-12-18T13:16:48;99419.25;;;-5.56;100.00
26487;BME280;14425;56.136;40.360;2022-12-18T13:19:23;99424.50;;;-5.35;100.00
26487;BME280;14425;56.136;40.360;2022-12-18T13:21:54;99435.88;;;-5.30;100.00
26487;BME280;14425;56.136;40.360;2022-12-18T13:24:27;99429.59;;;-4.71;100.00
26487;BME280;14425;56.136;40.360;2022-12-18T13:26:55;99415.72;;;-4.76;100.00
26487;BME280;14425;56.136;40.360;2022-12-18T13:32:15;99442.72;;;-5.47;100.00
26487;BME280;14425;56.136;40.360;2022-12-18T13:34:43;99434.16;;;-5.04;100.00
26487;BME280;14425;56.136;40.360;2022-12-18T13:39:56;99427.00;;;-5.27;100.00
26487;BME280;14425;56.136;40.360;2022-12-18T13:42:31;99446.28;;;-5.53;100.00
26487;BME280;14425;56.136;40.360;2022-12-18T13:45:40;99454.16;;;-5.94;100.00
26487;BME280;14425;56.136;40.360;2022-12-18T13:48:21;99457.97;;;-5.63;100.00
26487;BME280;14425;56.136;40.360;2022-12-18T13:50:57;99461.09;;;-5.74;100.00
26487;BME280;14425;56.136;40.360;2022-12-18T13:53:30;99458.94;;;-2.80;100.00
26487;BME280;14425;56.136;40.360;2022-12-18T13:55:58;99457.97;;;-2.62;96.74
26487;BME280;14425;56.136;40.360;2022-12-18T13:58:23;99474.22;;;-4.60;100.00
26487;BME280;14425;56.136;40.360;2022-12-18T14:00:49;99474.72;;;-5.18;100.00
26487;BME280;14425;56.136;40.360;2022-12-18T14:03:16;99488.97;;;-5.27;100.00
26487;BME280;14425;56.136;40.360;2022-12-18T14:05:45;99493.44;;;-4.79;100.00
26487;BME280;14425;56.136;40.360;2022-12-18T14:08:12;99495.97;;;-4.97;100.00
26487;BME280;14425;56.136;40.360;2022-12-18T14:10:42;99498.84;;;-5.20;100.00
26487;BME280;14425;56.136;40.360;2022-12-18T14:13:09;99500.03;;;-5.08;100.00
26487;BME280;14425;56.136;40.360;2022-12-18T14:15:42;99510.59;;;-5.64;100.00